sensor_id;sensor_type;location;lat;lon;timestamp;P1;durP1;ratioP1;P2;durP2;ratioP2
61911;SDS011;49973;52.084;5.412;2022-07-23T00:02:14;3.70;;;1.77;;
61911;SDS011;49973;52.084;5.412;2022-07-23T00:04:44;2.67;;;2.00;;
61911;SDS011;49973;52.084;5.412;2022-07-23T00:07:12;4.30;;;2.13;;
61911;SDS011;49973;52.084;5.412;2022-07-23T00:09:41;2.53;;;1.80;;
61911;SDS011;49973;52.084;5.412;2022-07-23T00:12:10;5.83;;;1.77;;
61911;SDS011;49973;52.084;5.412;2022-07-23T00:14:38;3.40;;;1.90;;
61911;SDS011;49973;52.084;5.412;2022-07-23T00:17:07;6.03;;;1.80;;
61911;SDS011;49973;52.084;5.412;2022-07-23T00:19:35;3.63;;;2.13;;
61911;SDS011;49973;52.084;5.412;2022-07-23T00:22:05;5.03;;;2.00;;
61911;SDS011;49973;52.084;5.412;2022-07-23T00:24:34;8.13;;;2.23;;
61911;SDS011;49973;52.084;5.412;2022-07-23T00:27:02;2.67;;;2.00;;
61911;SDS011;49973;52.084;5.412;2022-07-23T00:29:31;2.40;;;2.00;;
61911;SDS011;49973;52.084;5.412;2022-07-23T00:32:00;5.10;;;2.60;;
61911;SDS011;49973;52.084;5.412;2022-07-23T00:34:28;4.87;;;2.13;;
61911;SDS011;49973;52.084;5.412;2022-07-23T00:36:57;3.33;;;1.93;;
61911;SDS011;49973;52.084;5.412;2022-07-23T00:39:27;3.77;;;2.30;;
61911;SDS011;49973;52.084;5.412;2022-07-23T00:41:56;3.00;;;2.10;;
61911;SDS011;49973;52.084;5.412;2022-07-23T00:44:25;2.73;;;2.07;;
61911;SDS011;49973;52.084;5.412;2022-07-23T00:46:56;3.10;;;2.43;;
61911;SDS011;49973;52.084;5.412;2022-07-23T00:49:26;3.03;;;1.77;;
61911;SDS011;49973;52.084;5.412;2022-07-23T00:51:56;4.70;;;2.30;;
61911;SDS011;49973;52.084;5.412;2022-07-23T00:54:25;2.67;;;2.47;;
61911;SDS011;49973;52.084;5.412;2022-07-23T00:56:56;4.33;;;2.43;;
61911;SDS011;49973;52.084;5.412;2022-07-23T00:59:24;3.87;;;2.37;;
61911;SDS011;49973;52.084;5.412;2022-07-23T01:01:53;4.43;;;2.50;;
61911;SDS011;49973;52.084;5.412;2022-07-23T01:04:21;3.33;;;2.40;;
61911;SDS011;49973;52.084;5.412;2022-07-23T01:06:50;3.00;;;1.90;;
61911;SDS011;49973;52.084;5.412;2022-07-23T01:09:19;3.77;;;2.10;;
61911;SDS011;49973;52.084;5.412;2022-07-23T01:11:49;3.43;;;2.37;;
61911;SDS011;49973;52.084;5.412;2022-07-23T01:14:19;2.97;;;1.97;;
61911;SDS011;49973;52.084;5.412;2022-07-23T01:16:48;7.03;;;2.47;;
61911;SDS011;49973;52.084;5.412;2022-07-23T01:19:17;5.67;;;2.73;;
61911;SDS011;49973;52.084;5.412;2022-07-23T01:21:47;3.33;;;2.33;;
61911;SDS011;49973;52.084;5.412;2022-07-23T01:24:18;3.27;;;2.30;;
61911;SDS011;49973;52.084;5.412;2022-07-23T01:26:55;2.30;;;2.07;;
61911;SDS011;49973;52.084;5.412;2022-07-23T01:29:25;3.13;;;2.50;;
61911;SDS011;49973;52.084;5.412;2022-07-23T01:31:54;2.83;;;2.37;;
61911;SDS011;49973;52.084;5.412;2022-07-23T01:34:23;7.53;;;2.60;;
61911;SDS011;49973;52.084;5.412;2022-07-23T01:36:51;4.93;;;2.77;;
61911;SDS011;49973;52.084;5.412;2022-07-23T01:39:21;4.00;;;2.37;;
61911;SDS011;49973;52.084;5.412;2022-07-23T01:41:52;9.57;;;2.33;;
61911;SDS011;49973;52.084;5.412;2022-07-23T01:44:22;4.90;;;2.60;;
61911;SDS011;49973;52.084;5.412;2022-07-23T01:46:50;5.63;;;2.90;;
61911;SDS011;49973;52.084;5.412;2022-07-23T01:49:20;4.20;;;2.50;;
61911;SDS011;49973;52.084;5.412;2022-07-23T01:51:57;7.93;;;2.90;;
61911;SDS011;49973;52.084;5.412;2022-07-23T01:54:45;4.30;;;2.50;;
61911;SDS011;49973;52.084;5.412;2022-07-23T01:57:14;7.27;;;2.80;;
61911;SDS011;49973;52.084;5.412;2022-07-23T01:59:43;6.40;;;3.20;;
61911;SDS011;49973;52.084;5.412;2022-07-23T02:02:11;5.40;;;3.13;;
61911;SDS011;49973;52.084;5.412;2022-07-23T02:04:40;3.87;;;2.57;;
61911;SDS011;49973;52.084;5.412;2022-07-23T02:07:09;4.97;;;2.97;;
61911;SDS011;49973;52.084;5.412;2022-07-23T02:09:37;6.23;;;2.73;;
61911;SDS011;49973;52.084;5.412;2022-07-23T02:12:07;3.60;;;2.90;;
61911;SDS011;49973;52.084;5.412;2022-07-23T02:14:36;3.73;;;2.70;;
61911;SDS011;49973;52.084;5.412;2022-07-23T02:17:05;5.30;;;2.70;;
61911;SDS011;49973;52.084;5.412;2022-07-23T02:19:34;4.60;;;2.53;;
61911;SDS011;49973;52.084;5.412;2022-07-23T02:22:03;6.20;;;3.00;;
61911;SDS011;49973;52.084;5.412;2022-07-23T02:24:32;4.07;;;2.57;;
61911;SDS011;49973;52.084;5.412;2022-07-23T02:27:00;3.50;;;2.77;;
61911;SDS011;49973;52.084;5.412;2022-07-23T02:29:30;5.10;;;3.10;;
61911;SDS011;49973;52.084;5.412;2022-07-23T02:31:59;4.07;;;2.97;;
61911;SDS011;49973;52.084;5.412;2022-07-23T02:34:28;5.37;;;3.20;;
61911;SDS011;49973;52.084;5.412;2022-07-23T02:36:56;3.87;;;2.90;;
61911;SDS011;49973;52.084;5.412;2022-07-23T02:39:27;3.70;;;2.60;;
61911;SDS011;49973;52.084;5.412;2022-07-23T02:41:56;8.20;;;2.90;;
61911;SDS011;49973;52.084;5.412;2022-07-23T02:44:25;4.57;;;2.63;;
61911;SDS011;49973;52.084;5.412;2022-07-23T02:46:55;4.70;;;2.57;;
61911;SDS011;49973;52.084;5.412;2022-07-23T02:49:23;5.87;;;2.57;;
61911;SDS011;49973;52.084;5.412;2022-07-23T02:51:52;3.13;;;2.33;;
61911;SDS011;49973;52.084;5.412;2022-07-23T02:54:21;3.90;;;2.53;;
61911;SDS011;49973;52.084;5.412;2022-07-23T02:56:51;3.77;;;2.37;;
61911;SDS011;49973;52.084;5.412;2022-07-23T02:59:19;6.60;;;3.10;;
61911;SDS011;49973;52.084;5.412;2022-07-23T03:01:48;5.50;;;3.40;;
61911;SDS011;49973;52.084;5.412;2022-07-23T03:04:19;3.87;;;2.83;;
61911;SDS011;49973;52.084;5.412;2022-07-23T03:06:48;3.83;;;2.60;;
61911;SDS011;49973;52.084;5.412;2022-07-23T03:09:16;12.33;;;3.87;;
61911;SDS011;49973;52.084;5.412;2022-07-23T03:11:45;5.33;;;3.33;;
61911;SDS011;49973;52.084;5.412;2022-07-23T03:14:13;7.13;;;3.13;;
61911;SDS011;49973;52.084;5.412;2022-07-23T03:16:43;5.83;;;2.73;;
61911;SDS011;49973;52.084;5.412;2022-07-23T03:19:11;8.20;;;3.67;;
61911;SDS011;49973;52.084;5.412;2022-07-23T03:21:42;3.70;;;2.50;;
61911;SDS011;49973;52.084;5.412;2022-07-23T03:24:11;4.60;;;2.70;;
61911;SDS011;49973;52.084;5.412;2022-07-23T03:26:40;5.20;;;2.43;;
61911;SDS011;49973;52.084;5.412;2022-07-23T03:29:08;5.47;;;2.90;;
61911;SDS011;49973;52.084;5.412;2022-07-23T03:31:37;5.13;;;3.30;;
61911;SDS011;49973;52.084;5.412;2022-07-23T03:34:07;4.80;;;2.90;;
61911;SDS011;49973;52.084;5.412;2022-07-23T03:36:35;5.30;;;3.33;;
61911;SDS011;49973;52.084;5.412;2022-07-23T03:39:06;8.33;;;3.10;;
61911;SDS011;49973;52.084;5.412;2022-07-23T03:41:40;6.80;;;3.50;;
61911;SDS011;49973;52.084;5.412;2022-07-23T03:44:10;6.50;;;3.20;;
61911;SDS011;49973;52.084;5.412;2022-07-23T03:46:38;6.73;;;3.57;;
61911;SDS011;49973;52.084;5.412;2022-07-23T03:49:07;6.20;;;3.43;;
61911;SDS011;49973;52.084;5.412;2022-07-23T03:51:35;8.47;;;3.67;;
61911;SDS011;49973;52.084;5.412;2022-07-23T03:54:04;8.33;;;3.63;;
61911;SDS011;49973;52.084;5.412;2022-07-23T03:56:34;5.23;;;3.70;;
61911;SDS011;49973;52.084;5.412;2022-07-23T03:59:03;7.57;;;4.10;;
61911;SDS011;49973;52.084;5.412;2022-07-23T04:01:32;5.60;;;3.50;;
61911;SDS011;49973;52.084;5.412;2022-07-23T04:04:01;5.10;;;3.37;;
61911;SDS011;49973;52.084;5.412;2022-07-23T04:06:30;5.70;;;3.47;;
61911;SDS011;49973;52.084;5.412;2022-07-23T04:08:59;6.83;;;3.10;;
61911;SDS011;49973;52.084;5.412;2022-07-23T04:11:30;5.80;;;2.40;;
61911;SDS011;49973;52.084;5.412;2022-07-23T04:13:59;7.23;;;3.07;;
61911;SDS011;49973;52.084;5.412;2022-07-23T04:16:29;5.03;;;3.00;;
61911;SDS011;49973;52.084;5.412;2022-07-23T04:18:58;4.33;;;3.00;;
61911;SDS011;49973;52.084;5.412;2022-07-23T04:21:32;4.13;;;3.20;;
61911;SDS011;49973;52.084;5.412;2022-07-23T04:24:01;7.93;;;3.43;;
61911;SDS011;49973;52.084;5.412;2022-07-23T04:26:30;6.40;;;4.63;;
61911;SDS011;49973;52.084;5.412;2022-07-23T04:29:00;7.63;;;4.17;;
61911;SDS011;49973;52.084;5.412;2022-07-23T04:31:30;5.47;;;3.47;;
61911;SDS011;49973;52.084;5.412;2022-07-23T04:34:03;6.90;;;3.37;;
61911;SDS011;49973;52.084;5.412;2022-07-23T04:36:32;6.93;;;3.60;;
61911;SDS011;49973;52.084;5.412;2022-07-23T04:39:01;6.10;;;3.00;;
61911;SDS011;49973;52.084;5.412;2022-07-23T04:41:31;5.53;;;2.80;;
61911;SDS011;49973;52.084;5.412;2022-07-23T04:44:01;5.53;;;3.47;;
61911;SDS011;49973;52.084;5.412;2022-07-23T04:46:30;4.47;;;3.00;;
61911;SDS011;49973;52.084;5.412;2022-07-23T04:49:00;5.30;;;2.93;;
61911;SDS011;49973;52.084;5.412;2022-07-23T04:51:29;8.23;;;2.90;;
61911;SDS011;49973;52.084;5.412;2022-07-23T04:53:59;5.13;;;2.77;;
61911;SDS011;49973;52.084;5.412;2022-07-23T04:56:28;4.33;;;2.33;;
61911;SDS011;49973;52.084;5.412;2022-07-23T04:58:56;4.87;;;2.20;;
61911;SDS011;49973;52.084;5.412;2022-07-23T05:01:27;5.67;;;2.80;;
61911;SDS011;49973;52.084;5.412;2022-07-23T05:03:55;4.27;;;2.37;;
61911;SDS011;49973;52.084;5.412;2022-07-23T05:06:29;5.40;;;2.90;;
61911;SDS011;49973;52.084;5.412;2022-07-23T05:08:57;9.97;;;3.40;;
61911;SDS011;49973;52.084;5.412;2022-07-23T05:11:26;6.60;;;3.47;;
61911;SDS011;49973;52.084;5.412;2022-07-23T05:13:55;4.57;;;3.27;;
61911;SDS011;49973;52.084;5.412;2022-07-23T05:16:24;4.67;;;3.20;;
61911;SDS011;49973;52.084;5.412;2022-07-23T05:19:00;11.43;;;3.23;;
61911;SDS011;49973;52.084;5.412;2022-07-23T05:21:31;5.13;;;3.17;;
61911;SDS011;49973;52.084;5.412;2022-07-23T05:23:59;5.73;;;3.63;;
61911;SDS011;49973;52.084;5.412;2022-07-23T05:26:28;14.03;;;4.47;;
61911;SDS011;49973;52.084;5.412;2022-07-23T05:28:57;6.17;;;3.83;;
61911;SDS011;49973;52.084;5.412;2022-07-23T05:31:25;9.33;;;3.77;;
61911;SDS011;49973;52.084;5.412;2022-07-23T05:33:54;5.20;;;3.60;;
61911;SDS011;49973;52.084;5.412;2022-07-23T05:36:27;6.93;;;3.77;;
61911;SDS011;49973;52.084;5.412;2022-07-23T05:38:57;5.23;;;3.60;;
61911;SDS011;49973;52.084;5.412;2022-07-23T05:41:28;8.80;;;4.40;;
61911;SDS011;49973;52.084;5.412;2022-07-23T05:43:57;14.10;;;4.70;;
61911;SDS011;49973;52.084;5.412;2022-07-23T05:46:27;5.87;;;3.80;;
61911;SDS011;49973;52.084;5.412;2022-07-23T05:49:00;8.20;;;4.17;;
61911;SDS011;49973;52.084;5.412;2022-07-23T05:51:52;8.77;;;3.83;;
61911;SDS011;49973;52.084;5.412;2022-07-23T05:54:31;5.30;;;3.80;;
61911;SDS011;49973;52.084;5.412;2022-07-23T05:57:02;6.77;;;3.60;;
61911;SDS011;49973;52.084;5.412;2022-07-23T05:59:31;5.30;;;3.27;;
61911;SDS011;49973;52.084;5.412;2022-07-23T06:02:00;6.90;;;3.20;;
61911;SDS011;49973;52.084;5.412;2022-07-23T06:04:29;6.53;;;2.97;;
61911;SDS011;49973;52.084;5.412;2022-07-23T06:07:26;2.53;;;2.13;;
61911;SDS011;49973;52.084;5.412;2022-07-23T06:09:54;4.03;;;2.23;;
61911;SDS011;49973;52.084;5.412;2022-07-23T06:12:23;3.17;;;2.13;;
61911;SDS011;49973;52.084;5.412;2022-07-23T06:14:54;2.63;;;1.40;;
61911;SDS011;49973;52.084;5.412;2022-07-23T06:17:23;5.07;;;2.10;;
61911;SDS011;49973;52.084;5.412;2022-07-23T06:19:52;6.13;;;1.40;;
61911;SDS011;49973;52.084;5.412;2022-07-23T06:22:21;3.97;;;1.73;;
61911;SDS011;49973;52.084;5.412;2022-07-23T06:24:51;1.70;;;1.53;;
61911;SDS011;49973;52.084;5.412;2022-07-23T06:27:21;1.73;;;1.63;;
61911;SDS011;49973;52.084;5.412;2022-07-23T06:29:52;4.80;;;1.90;;
61911;SDS011;49973;52.084;5.412;2022-07-23T06:32:21;4.10;;;1.93;;
61911;SDS011;49973;52.084;5.412;2022-07-23T06:34:49;4.40;;;1.60;;
61911;SDS011;49973;52.084;5.412;2022-07-23T06:37:20;4.00;;;1.83;;
61911;SDS011;49973;52.084;5.412;2022-07-23T06:39:49;2.33;;;1.47;;
61911;SDS011;49973;52.084;5.412;2022-07-23T06:42:19;2.43;;;1.60;;
61911;SDS011;49973;52.084;5.412;2022-07-23T06:44:55;6.17;;;1.90;;
61911;SDS011;49973;52.084;5.412;2022-07-23T06:47:24;2.93;;;1.40;;
61911;SDS011;49973;52.084;5.412;2022-07-23T06:49:53;2.90;;;1.60;;
61911;SDS011;49973;52.084;5.412;2022-07-23T06:52:24;1.77;;;1.20;;
61911;SDS011;49973;52.084;5.412;2022-07-23T06:54:53;3.67;;;1.60;;
61911;SDS011;49973;52.084;5.412;2022-07-23T06:57:23;4.17;;;1.40;;
61911;SDS011;49973;52.084;5.412;2022-07-23T06:59:53;6.93;;;1.60;;
61911;SDS011;49973;52.084;5.412;2022-07-23T07:02:22;1.27;;;1.17;;
61911;SDS011;49973;52.084;5.412;2022-07-23T07:04:50;5.77;;;1.67;;
61911;SDS011;49973;52.084;5.412;2022-07-23T07:07:19;1.90;;;1.20;;
61911;SDS011;49973;52.084;5.412;2022-07-23T07:09:49;2.90;;;1.20;;
61911;SDS011;49973;52.084;5.412;2022-07-23T07:12:17;4.70;;;1.37;;
61911;SDS011;49973;52.084;5.412;2022-07-23T07:14:47;2.77;;;1.30;;
61911;SDS011;49973;52.084;5.412;2022-07-23T07:17:16;4.07;;;1.23;;
61911;SDS011;49973;52.084;5.412;2022-07-23T07:19:44;3.60;;;1.60;;
61911;SDS011;49973;52.084;5.412;2022-07-23T07:22:13;3.43;;;1.20;;
61911;SDS011;49973;52.084;5.412;2022-07-23T07:24:41;4.07;;;1.67;;
61911;SDS011;49973;52.084;5.412;2022-07-23T07:27:10;5.60;;;1.47;;
61911;SDS011;49973;52.084;5.412;2022-07-23T07:29:38;2.83;;;1.30;;
61911;SDS011;49973;52.084;5.412;2022-07-23T07:32:08;3.57;;;1.10;;
61911;SDS011;49973;52.084;5.412;2022-07-23T07:34:36;2.23;;;1.40;;
61911;SDS011;49973;52.084;5.412;2022-07-23T07:37:05;2.77;;;1.57;;
61911;SDS011;49973;52.084;5.412;2022-07-23T07:39:34;2.10;;;1.30;;
61911;SDS011;49973;52.084;5.412;2022-07-23T07:42:03;3.37;;;1.30;;
61911;SDS011;49973;52.084;5.412;2022-07-23T07:44:31;1.63;;;1.47;;
61911;SDS011;49973;52.084;5.412;2022-07-23T07:47:00;1.80;;;1.10;;
61911;SDS011;49973;52.084;5.412;2022-07-23T07:49:29;1.43;;;0.83;;
61911;SDS011;49973;52.084;5.412;2022-07-23T07:52:01;1.73;;;0.90;;
61911;SDS011;49973;52.084;5.412;2022-07-23T07:54:29;2.77;;;1.20;;
61911;SDS011;49973;52.084;5.412;2022-07-23T07:57:04;5.63;;;1.40;;
61911;SDS011;49973;52.084;5.412;2022-07-23T07:59:34;4.50;;;1.17;;
61911;SDS011;49973;52.084;5.412;2022-07-23T08:02:03;3.60;;;1.20;;
61911;SDS011;49973;52.084;5.412;2022-07-23T08:04:33;4.10;;;1.43;;
61911;SDS011;49973;52.084;5.412;2022-07-23T08:07:01;6.50;;;1.20;;
61911;SDS011;49973;52.084;5.412;2022-07-23T08:09:30;4.60;;;1.33;;
61911;SDS011;49973;52.084;5.412;2022-07-23T08:11:58;3.63;;;1.40;;
61911;SDS011;49973;52.084;5.412;2022-07-23T08:14:26;3.80;;;1.23;;
61911;SDS011;49973;52.084;5.412;2022-07-23T08:16:55;1.60;;;1.10;;
61911;SDS011;49973;52.084;5.412;2022-07-23T08:19:41;3.50;;;1.90;;
61911;SDS011;49973;52.084;5.412;2022-07-23T08:22:09;3.63;;;1.27;;
61911;SDS011;49973;52.084;5.412;2022-07-23T08:24:38;1.57;;;1.23;;
61911;SDS011;49973;52.084;5.412;2022-07-23T08:27:07;2.90;;;1.43;;
61911;SDS011;49973;52.084;5.412;2022-07-23T08:29:35;1.37;;;0.97;;
61911;SDS011;49973;52.084;5.412;2022-07-23T08:32:04;3.57;;;0.80;;
61911;SDS011;49973;52.084;5.412;2022-07-23T08:34:54;1.47;;;0.90;;
61911;SDS011;49973;52.084;5.412;2022-07-23T08:37:23;7.23;;;2.80;;
61911;SDS011;49973;52.084;5.412;2022-07-23T08:39:51;4.03;;;2.10;;
61911;SDS011;49973;52.084;5.412;2022-07-23T08:42:20;16.60;;;9.60;;
61911;SDS011;49973;52.084;5.412;2022-07-23T08:44:49;1.97;;;1.30;;
61911;SDS011;49973;52.084;5.412;2022-07-23T08:47:18;3.53;;;1.10;;
61911;SDS011;49973;52.084;5.412;2022-07-23T08:49:46;1.73;;;1.07;;
61911;SDS011;49973;52.084;5.412;2022-07-23T08:52:16;3.53;;;1.10;;
61911;SDS011;49973;52.084;5.412;2022-07-23T08:54:51;1.93;;;1.27;;
61911;SDS011;49973;52.084;5.412;2022-07-23T08:57:20;1.23;;;1.00;;
61911;SDS011;49973;52.084;5.412;2022-07-23T08:59:48;3.13;;;1.63;;
61911;SDS011;49973;52.084;5.412;2022-07-23T09:02:19;2.07;;;0.93;;
61911;SDS011;49973;52.084;5.412;2022-07-23T09:04:48;1.80;;;1.00;;
61911;SDS011;49973;52.084;5.412;2022-07-23T09:07:18;1.80;;;1.23;;
61911;SDS011;49973;52.084;5.412;2022-07-23T09:09:46;2.17;;;1.10;;
61911;SDS011;49973;52.084;5.412;2022-07-23T09:12:26;2.40;;;0.97;;
61911;SDS011;49973;52.084;5.412;2022-07-23T09:14:54;3.27;;;1.43;;
61911;SDS011;49973;52.084;5.412;2022-07-23T09:17:23;3.23;;;1.50;;
61911;SDS011;49973;52.084;5.412;2022-07-23T09:19:51;2.70;;;1.20;;
61911;SDS011;49973;52.084;5.412;2022-07-23T09:22:35;3.97;;;1.30;;
61911;SDS011;49973;52.084;5.412;2022-07-23T09:25:06;1.67;;;0.90;;
61911;SDS011;49973;52.084;5.412;2022-07-23T09:27:47;3.43;;;1.23;;
61911;SDS011;49973;52.084;5.412;2022-07-23T09:30:21;3.13;;;1.23;;
61911;SDS011;49973;52.084;5.412;2022-07-23T09:33:04;4.30;;;1.00;;
61911;SDS011;49973;52.084;5.412;2022-07-23T09:35:47;1.40;;;0.93;;
61911;SDS011;49973;52.084;5.412;2022-07-23T09:38:19;2.87;;;1.60;;
61911;SDS011;49973;52.084;5.412;2022-07-23T09:43:35;2.07;;;0.97;;
61911;SDS011;49973;52.084;5.412;2022-07-23T09:46:16;3.33;;;1.50;;
61911;SDS011;49973;52.084;5.412;2022-07-23T09:48:47;1.67;;;0.93;;
61911;SDS011;49973;52.084;5.412;2022-07-23T09:51:15;3.43;;;1.17;;
61911;SDS011;49973;52.084;5.412;2022-07-23T09:53:47;5.07;;;1.27;;
61911;SDS011;49973;52.084;5.412;2022-07-23T09:56:16;3.53;;;1.40;;
61911;SDS011;49973;52.084;5.412;2022-07-23T09:58:53;3.03;;;1.20;;
61911;SDS011;49973;52.084;5.412;2022-07-23T10:01:30;1.90;;;1.00;;
61911;SDS011;49973;52.084;5.412;2022-07-23T10:03:59;2.67;;;1.57;;
61911;SDS011;49973;52.084;5.412;2022-07-23T10:06:51;2.90;;;1.20;;
61911;SDS011;49973;52.084;5.412;2022-07-23T10:09:57;4.27;;;1.50;;
61911;SDS011;49973;52.084;5.412;2022-07-23T10:12:45;1.70;;;1.20;;
61911;SDS011;49973;52.084;5.412;2022-07-23T10:15:38;3.33;;;1.77;;
61911;SDS011;49973;52.084;5.412;2022-07-23T10:18:09;1.13;;;0.98;;
61911;SDS011;49973;52.084;5.412;2022-07-23T10:20:39;3.00;;;1.00;;
61911;SDS011;49973;52.084;5.412;2022-07-23T10:23:10;1.40;;;1.00;;
61911;SDS011;49973;52.084;5.412;2022-07-23T10:25:51;3.80;;;0.93;;
61911;SDS011;49973;52.084;5.412;2022-07-23T10:31:20;1.10;;;1.00;;
61911;SDS011;49973;52.084;5.412;2022-07-23T10:34:19;2.73;;;1.10;;
61911;SDS011;49973;52.084;5.412;2022-07-23T10:36:53;2.63;;;0.80;;
61911;SDS011;49973;52.084;5.412;2022-07-23T10:39:30;1.63;;;0.98;;
61911;SDS011;49973;52.084;5.412;2022-07-23T10:42:08;2.67;;;1.00;;
61911;SDS011;49973;52.084;5.412;2022-07-23T10:44:39;1.23;;;1.10;;
61911;SDS011;49973;52.084;5.412;2022-07-23T10:47:09;4.57;;;1.15;;
61911;SDS011;49973;52.084;5.412;2022-07-23T10:53:13;1.33;;;1.02;;
61911;SDS011;49973;52.084;5.412;2022-07-23T10:55:45;1.17;;;0.90;;
61911;SDS011;49973;52.084;5.412;2022-07-23T10:58:45;0.77;;;0.73;;
61911;SDS011;49973;52.084;5.412;2022-07-23T11:01:33;3.25;;;1.30;;
61911;SDS011;49973;52.084;5.412;2022-07-23T11:04:03;1.58;;;1.13;;
61911;SDS011;49973;52.084;5.412;2022-07-23T11:09:39;1.83;;;0.70;;
61911;SDS011;49973;52.084;5.412;2022-07-23T11:15:02;0.68;;;0.68;;
61911;SDS011;49973;52.084;5.412;2022-07-23T11:17:36;2.67;;;1.30;;
61911;SDS011;49973;52.084;5.412;2022-07-23T11:20:16;0.85;;;0.85;;
61911;SDS011;49973;52.084;5.412;2022-07-23T11:22:47;1.33;;;0.93;;
61911;SDS011;49973;52.084;5.412;2022-07-23T11:25:34;0.82;;;0.80;;
61911;SDS011;49973;52.084;5.412;2022-07-23T11:28:14;3.08;;;1.60;;
61911;SDS011;49973;52.084;5.412;2022-07-23T11:30:45;2.13;;;1.20;;
61911;SDS011;49973;52.084;5.412;2022-07-23T11:33:19;1.23;;;0.90;;
61911;SDS011;49973;52.084;5.412;2022-07-23T11:35:49;1.90;;;0.95;;
61911;SDS011;49973;52.084;5.412;2022-07-23T11:38:30;0.80;;;0.80;;
61911;SDS011;49973;52.084;5.412;2022-07-23T11:41:00;2.50;;;0.93;;
61911;SDS011;49973;52.084;5.412;2022-07-23T11:43:29;2.42;;;1.30;;
61911;SDS011;49973;52.084;5.412;2022-07-23T11:45:59;4.80;;;1.20;;
61911;SDS011;49973;52.084;5.412;2022-07-23T11:48:29;1.45;;;0.88;;
61911;SDS011;49973;52.084;5.412;2022-07-23T11:51:06;3.67;;;1.02;;
61911;SDS011;49973;52.084;5.412;2022-07-23T11:53:35;0.77;;;0.77;;
61911;SDS011;49973;52.084;5.412;2022-07-23T11:56:04;1.35;;;1.00;;
61911;SDS011;49973;52.084;5.412;2022-07-23T11:58:33;2.78;;;1.05;;
61911;SDS011;49973;52.084;5.412;2022-07-23T12:01:04;1.13;;;1.02;;
61911;SDS011;49973;52.084;5.412;2022-07-23T12:03:48;1.13;;;1.00;;
61911;SDS011;49973;52.084;5.412;2022-07-23T12:06:17;0.88;;;0.85;;
61911;SDS011;49973;52.084;5.412;2022-07-23T12:08:46;2.45;;;1.33;;
61911;SDS011;49973;52.084;5.412;2022-07-23T12:11:14;3.13;;;1.17;;
61911;SDS011;49973;52.084;5.412;2022-07-23T12:13:43;3.30;;;1.20;;
61911;SDS011;49973;52.084;5.412;2022-07-23T12:16:13;1.08;;;0.98;;
61911;SDS011;49973;52.084;5.412;2022-07-23T12:18:41;1.77;;;1.10;;
61911;SDS011;49973;52.084;5.412;2022-07-23T12:21:10;2.92;;;1.20;;
61911;SDS011;49973;52.084;5.412;2022-07-23T12:23:39;4.50;;;1.98;;
61911;SDS011;49973;52.084;5.412;2022-07-23T12:26:11;2.33;;;1.67;;
61911;SDS011;49973;52.084;5.412;2022-07-23T12:28:39;2.33;;;1.27;;
61911;SDS011;49973;52.084;5.412;2022-07-23T12:31:10;2.95;;;1.17;;
61911;SDS011;49973;52.084;5.412;2022-07-23T12:33:44;4.97;;;1.10;;
61911;SDS011;49973;52.084;5.412;2022-07-23T12:36:14;8.40;;;1.20;;
61911;SDS011;49973;52.084;5.412;2022-07-23T12:38:44;4.03;;;1.20;;
61911;SDS011;49973;52.084;5.412;2022-07-23T12:41:15;2.88;;;1.23;;
61911;SDS011;49973;52.084;5.412;2022-07-23T12:43:44;6.80;;;1.75;;
61911;SDS011;49973;52.084;5.412;2022-07-23T12:46:14;1.60;;;1.10;;
61911;SDS011;49973;52.084;5.412;2022-07-23T12:48:51;1.45;;;1.30;;
61911;SDS011;49973;52.084;5.412;2022-07-23T12:51:21;6.30;;;1.08;;
61911;SDS011;49973;52.084;5.412;2022-07-23T12:53:53;3.95;;;1.20;;
61911;SDS011;49973;52.084;5.412;2022-07-23T12:56:26;7.78;;;1.20;;
61911;SDS011;49973;52.084;5.412;2022-07-23T12:58:56;1.45;;;1.20;;
61911;SDS011;49973;52.084;5.412;2022-07-23T13:01:30;1.98;;;0.90;;
61911;SDS011;49973;52.084;5.412;2022-07-23T13:04:02;1.25;;;1.02;;
61911;SDS011;49973;52.084;5.412;2022-07-23T13:06:40;4.18;;;1.20;;
61911;SDS011;49973;52.084;5.412;2022-07-23T13:09:11;3.45;;;1.45;;
61911;SDS011;49973;52.084;5.412;2022-07-23T13:11:41;3.67;;;1.17;;
61911;SDS011;49973;52.084;5.412;2022-07-23T13:14:14;4.05;;;1.00;;
61911;SDS011;49973;52.084;5.412;2022-07-23T13:16:47;2.13;;;1.10;;
61911;SDS011;49973;52.084;5.412;2022-07-23T13:19:17;1.45;;;1.10;;
61911;SDS011;49973;52.084;5.412;2022-07-23T13:21:49;1.80;;;1.20;;
61911;SDS011;49973;52.084;5.412;2022-07-23T13:24:17;1.60;;;1.00;;
61911;SDS011;49973;52.084;5.412;2022-07-23T13:26:46;4.90;;;1.20;;
61911;SDS011;49973;52.084;5.412;2022-07-23T13:29:18;3.97;;;1.10;;
61911;SDS011;49973;52.084;5.412;2022-07-23T13:31:47;1.95;;;0.98;;
61911;SDS011;49973;52.084;5.412;2022-07-23T13:34:18;3.75;;;1.38;;
61911;SDS011;49973;52.084;5.412;2022-07-23T13:36:47;1.95;;;1.30;;
61911;SDS011;49973;52.084;5.412;2022-07-23T13:39:15;4.22;;;0.98;;
61911;SDS011;49973;52.084;5.412;2022-07-23T13:41:44;1.30;;;1.08;;
61911;SDS011;49973;52.084;5.412;2022-07-23T13:44:16;1.23;;;1.00;;
61911;SDS011;49973;52.084;5.412;2022-07-23T13:46:48;1.60;;;1.25;;
61911;SDS011;49973;52.084;5.412;2022-07-23T13:49:20;2.65;;;1.38;;
61911;SDS011;49973;52.084;5.412;2022-07-23T13:51:48;4.55;;;1.10;;
61911;SDS011;49973;52.084;5.412;2022-07-23T13:54:17;4.72;;;1.20;;
61911;SDS011;49973;52.084;5.412;2022-07-23T13:56:46;2.22;;;1.20;;
61911;SDS011;49973;52.084;5.412;2022-07-23T13:59:15;2.97;;;1.08;;
61911;SDS011;49973;52.084;5.412;2022-07-23T14:01:44;1.52;;;1.15;;
61911;SDS011;49973;52.084;5.412;2022-07-23T14:04:34;1.48;;;1.20;;
61911;SDS011;49973;52.084;5.412;2022-07-23T14:07:03;5.03;;;1.33;;
61911;SDS011;49973;52.084;5.412;2022-07-23T14:09:32;3.05;;;1.50;;
61911;SDS011;49973;52.084;5.412;2022-07-23T14:12:01;3.13;;;1.08;;
61911;SDS011;49973;52.084;5.412;2022-07-23T14:14:31;3.67;;;1.40;;
61911;SDS011;49973;52.084;5.412;2022-07-23T14:17:03;1.80;;;1.10;;
61911;SDS011;49973;52.084;5.412;2022-07-23T14:19:35;2.97;;;1.20;;
61911;SDS011;49973;52.084;5.412;2022-07-23T14:22:03;1.75;;;1.25;;
61911;SDS011;49973;52.084;5.412;2022-07-23T14:24:32;1.30;;;1.20;;
61911;SDS011;49973;52.084;5.412;2022-07-23T14:27:02;1.52;;;0.93;;
61911;SDS011;49973;52.084;5.412;2022-07-23T14:29:31;3.38;;;1.30;;
61911;SDS011;49973;52.084;5.412;2022-07-23T14:32:01;1.98;;;1.30;;
61911;SDS011;49973;52.084;5.412;2022-07-23T14:34:30;1.52;;;1.35;;
61911;SDS011;49973;52.084;5.412;2022-07-23T14:37:02;2.08;;;1.17;;
61911;SDS011;49973;52.084;5.412;2022-07-23T14:39:31;4.55;;;1.48;;
61911;SDS011;49973;52.084;5.412;2022-07-23T14:42:00;2.13;;;1.10;;
61911;SDS011;49973;52.084;5.412;2022-07-23T14:44:29;1.95;;;1.23;;
61911;SDS011;49973;52.084;5.412;2022-07-23T14:46:58;1.67;;;1.30;;
61911;SDS011;49973;52.084;5.412;2022-07-23T14:49:27;2.78;;;1.48;;
61911;SDS011;49973;52.084;5.412;2022-07-23T14:51:56;3.85;;;1.58;;
61911;SDS011;49973;52.084;5.412;2022-07-23T14:54:26;1.35;;;1.25;;
61911;SDS011;49973;52.084;5.412;2022-07-23T14:56:56;3.33;;;1.58;;
61911;SDS011;49973;52.084;5.412;2022-07-23T14:59:25;3.25;;;1.25;;
61911;SDS011;49973;52.084;5.412;2022-07-23T15:01:54;2.20;;;1.42;;
61911;SDS011;49973;52.084;5.412;2022-07-23T15:04:23;5.35;;;1.40;;
61911;SDS011;49973;52.084;5.412;2022-07-23T15:07:08;3.50;;;1.40;;
61911;SDS011;49973;52.084;5.412;2022-07-23T15:09:38;1.80;;;1.00;;
61911;SDS011;49973;52.084;5.412;2022-07-23T15:12:08;1.92;;;1.70;;
61911;SDS011;49973;52.084;5.412;2022-07-23T15:14:38;1.88;;;1.30;;
61911;SDS011;49973;52.084;5.412;2022-07-23T15:17:08;2.97;;;1.33;;
61911;SDS011;49973;52.084;5.412;2022-07-23T15:19:40;1.40;;;1.25;;
61911;SDS011;49973;52.084;5.412;2022-07-23T15:22:09;2.45;;;1.30;;
61911;SDS011;49973;52.084;5.412;2022-07-23T15:24:39;4.95;;;1.55;;
61911;SDS011;49973;52.084;5.412;2022-07-23T15:27:08;2.75;;;1.35;;